sensor_id;sensor_type;location;lat;lon;timestamp;noise_LAeq;noise_LA_min;noise_LA_max;noise_LA01;noise_LA95
66456;Laerm;56833;52.254;5.598;2022-07-25T00:00:07;32.84;28.98;51.08;;
66456;Laerm;56833;52.254;5.598;2022-07-25T00:00:18;30.44;29.16;33.25;;
66456;Laerm;56833;52.254;5.598;2022-07-25T00:00:28;30.56;29.23;34.59;;
66456;Laerm;56833;52.254;5.598;2022-07-25T00:00:39;30.25;28.97;31.92;;
66456;Laerm;56833;52.254;5.598;2022-07-25T00:00:49;30.71;29.35;33.47;;
66456;Laerm;56833;52.254;5.598;2022-07-25T00:00:59;30.61;29.48;32.28;;
66456;Laerm;56833;52.254;5.598;2022-07-25T00:01:09;30.79;29.64;35.66;;
66456;Laerm;56833;52.254;5.598;2022-07-25T00:01:19;31.46;29.57;38.09;;
66456;Laerm;56833;52.254;5.598;2022-07-25T00:01:30;31.88;29.34;36.49;;
66456;Laerm;56833;52.254;5.598;2022-07-25T00:01:40;32.21;29.72;38.15;;
66456;Laerm;56833;52.254;5.598;2022-07-25T00:01:50;31.95;29.41;36.79;;
66456;Laerm;56833;52.254;5.598;2022-07-25T00:02:01;31.57;29.78;36.22;;
66456;Laerm;56833;52.254;5.598;2022-07-25T00:02:11;32.50;29.76;36.73;;
66456;Laerm;56833;52.254;5.598;2022-07-25T00:02:21;32.12;29.61;34.67;;
66456;Laerm;56833;52.254;5.598;2022-07-25T00:02:31;33.46;30.16;39.54;;
66456;Laerm;56833;52.254;5.598;2022-07-25T00:02:42;31.61;29.32;35.51;;
66456;Laerm;56833;52.254;5.598;2022-07-25T00:02:52;30.51;29.33;33.57;;
66456;Laerm;56833;52.254;5.598;2022-07-25T00:03:02;31.17;29.36;35.20;;
66456;Laerm;56833;52.254;5.598;2022-07-25T00:03:13;30.88;29.15;33.65;;
66456;Laerm;56833;52.254;5.598;2022-07-25T00:03:23;30.95;29.22;33.01;;
66456;Laerm;56833;52.254;5.598;2022-07-25T00:03:33;30.16;28.60;35.23;;
66456;Laerm;56833;52.254;5.598;2022-07-25T00:03:43;30.51;28.83;35.92;;
66456;Laerm;56833;52.254;5.598;2022-07-25T00:03:54;30.81;29.25;34.81;;
66456;Laerm;56833;52.254;5.598;2022-07-25T00:04:04;30.45;29.07;36.99;;
66456;Laerm;56833;52.254;5.598;2022-07-25T00:04:14;30.58;28.58;33.83;;
66456;Laerm;56833;52.254;5.598;2022-07-25T00:04:24;30.49;29.21;33.14;;
66456;Laerm;56833;52.254;5.598;2022-07-25T00:04:35;30.87;29.23;32.86;;
66456;Laerm;56833;52.254;5.598;2022-07-25T00:04:45;30.44;29.14;33.51;;
66456;Laerm;56833;52.254;5.598;2022-07-25T00:04:55;30.26;28.94;31.30;;
66456;Laerm;56833;52.254;5.598;2022-07-25T00:05:06;30.40;28.57;34.77;;
66456;Laerm;56833;52.254;5.598;2022-07-25T00:05:16;30.09;28.33;32.10;;
66456;Laerm;56833;52.254;5.598;2022-07-25T00:05:26;30.05;28.33;31.15;;
66456;Laerm;56833;52.254;5.598;2022-07-25T00:05:36;30.11;28.87;32.38;;
66456;Laerm;56833;52.254;5.598;2022-07-25T00:05:47;30.43;29.13;32.11;;
66456;Laerm;56833;52.254;5.598;2022-07-25T00:05:57;30.31;29.17;32.96;;
66456;Laerm;56833;52.254;5.598;2022-07-25T00:06:07;29.86;28.71;31.29;;
66456;Laerm;56833;52.254;5.598;2022-07-25T00:06:17;29.65;28.42;31.42;;
66456;Laerm;56833;52.254;5.598;2022-07-25T00:06:28;29.98;28.78;36.54;;
66456;Laerm;56833;52.254;5.598;2022-07-25T00:06:38;30.29;28.70;31.62;;
66456;Laerm;56833;52.254;5.598;2022-07-25T00:06:49;30.71;29.31;32.42;;
66456;Laerm;56833;52.254;5.598;2022-07-25T00:06:59;30.77;29.34;32.13;;
66456;Laerm;56833;52.254;5.598;2022-07-25T00:07:09;30.68;29.21;32.62;;
66456;Laerm;56833;52.254;5.598;2022-07-25T00:07:20;30.58;29.33;32.28;;
66456;Laerm;56833;52.254;5.598;2022-07-25T00:07:30;30.38;29.14;33.59;;
66456;Laerm;56833;52.254;5.598;2022-07-25T00:07:40;30.49;28.97;36.79;;
66456;Laerm;56833;52.254;5.598;2022-07-25T00:07:50;30.96;29.46;38.23;;
66456;Laerm;56833;52.254;5.598;2022-07-25T00:08:01;30.88;29.16;32.75;;
66456;Laerm;56833;52.254;5.598;2022-07-25T00:08:11;30.67;29.42;36.08;;
66456;Laerm;56833;52.254;5.598;2022-07-25T00:08:21;30.72;29.11;34.15;;
66456;Laerm;56833;52.254;5.598;2022-07-25T00:08:31;30.42;29.16;35.32;;
66456;Laerm;56833;52.254;5.598;2022-07-25T00:08:41;30.63;29.26;37.84;;
66456;Laerm;56833;52.254;5.598;2022-07-25T00:08:52;31.76;30.14;34.41;;
66456;Laerm;56833;52.254;5.598;2022-07-25T00:09:02;31.61;29.72;33.39;;
66456;Laerm;56833;52.254;5.598;2022-07-25T00:09:12;30.81;29.62;31.92;;
66456;Laerm;56833;52.254;5.598;2022-07-25T00:09:23;30.38;29.11;36.38;;
66456;Laerm;56833;52.254;5.598;2022-07-25T00:09:33;30.27;28.81;36.97;;
66456;Laerm;56833;52.254;5.598;2022-07-25T00:09:43;30.89;29.54;39.16;;
66456;Laerm;56833;52.254;5.598;2022-07-25T00:09:53;30.58;29.25;34.05;;
66456;Laerm;56833;52.254;5.598;2022-07-25T00:10:04;30.80;29.62;33.34;;
66456;Laerm;56833;52.254;5.598;2022-07-25T00:10:14;30.69;29.50;32.14;;
66456;Laerm;56833;52.254;5.598;2022-07-25T00:10:25;30.54;29.33;33.10;;
66456;Laerm;56833;52.254;5.598;2022-07-25T00:10:35;31.11;29.83;35.00;;
66456;Laerm;56833;52.254;5.598;2022-07-25T00:10:45;31.30;29.59;37.92;;
66456;Laerm;56833;52.254;5.598;2022-07-25T00:10:56;31.02;29.80;33.37;;
66456;Laerm;56833;52.254;5.598;2022-07-25T00:11:06;30.95;29.71;33.27;;
66456;Laerm;56833;52.254;5.598;2022-07-25T00:11:17;30.87;29.48;33.09;;
66456;Laerm;56833;52.254;5.598;2022-07-25T00:11:27;30.74;29.44;31.95;;
66456;Laerm;56833;52.254;5.598;2022-07-25T00:11:37;30.70;29.72;35.88;;
66456;Laerm;56833;52.254;5.598;2022-07-25T00:11:47;30.70;29.63;32.15;;
66456;Laerm;56833;52.254;5.598;2022-07-25T00:11:58;30.62;29.46;33.19;;
66456;Laerm;56833;52.254;5.598;2022-07-25T00:12:08;30.16;29.27;32.02;;
66456;Laerm;56833;52.254;5.598;2022-07-25T00:12:18;30.19;29.04;33.41;;
66456;Laerm;56833;52.254;5.598;2022-07-25T00:12:29;30.62;29.22;32.67;;
66456;Laerm;56833;52.254;5.598;2022-07-25T00:12:39;31.87;30.02;34.27;;
66456;Laerm;56833;52.254;5.598;2022-07-25T00:12:49;30.79;29.35;33.14;;
66456;Laerm;56833;52.254;5.598;2022-07-25T00:12:59;31.04;29.77;32.73;;
66456;Laerm;56833;52.254;5.598;2022-07-25T00:13:10;30.88;29.90;34.06;;
66456;Laerm;56833;52.254;5.598;2022-07-25T00:13:20;30.69;29.55;33.02;;
66456;Laerm;56833;52.254;5.598;2022-07-25T00:13:30;30.87;29.82;32.58;;
66456;Laerm;56833;52.254;5.598;2022-07-25T00:13:40;31.29;29.97;32.48;;
66456;Laerm;56833;52.254;5.598;2022-07-25T00:13:51;31.03;29.97;32.43;;
66456;Laerm;56833;52.254;5.598;2022-07-25T00:14:01;30.93;29.39;33.15;;
66456;Laerm;56833;52.254;5.598;2022-07-25T00:14:12;32.74;30.52;34.63;;
66456;Laerm;56833;52.254;5.598;2022-07-25T00:14:22;31.51;30.12;34.04;;
66456;Laerm;56833;52.254;5.598;2022-07-25T00:14:32;30.97;29.53;34.10;;
66456;Laerm;56833;52.254;5.598;2022-07-25T00:14:42;30.54;29.29;34.75;;
66456;Laerm;56833;52.254;5.598;2022-07-25T00:14:52;30.66;29.29;34.34;;
66456;Laerm;56833;52.254;5.598;2022-07-25T00:15:03;31.10;29.59;36.02;;
66456;Laerm;56833;52.254;5.598;2022-07-25T00:15:13;30.88;29.20;39.06;;
66456;Laerm;56833;52.254;5.598;2022-07-25T00:15:24;30.50;28.67;39.56;;
66456;Laerm;56833;52.254;5.598;2022-07-25T00:15:34;30.52;29.33;34.04;;
66456;Laerm;56833;52.254;5.598;2022-07-25T00:15:44;30.90;29.21;33.90;;
66456;Laerm;56833;52.254;5.598;2022-07-25T00:15:54;31.24;29.39;35.91;;
66456;Laerm;56833;52.254;5.598;2022-07-25T00:16:05;31.96;29.62;36.59;;
66456;Laerm;56833;52.254;5.598;2022-07-25T00:16:15;32.02;30.37;36.42;;
66456;Laerm;56833;52.254;5.598;2022-07-25T00:16:25;31.92;30.40;34.96;;
66456;Laerm;56833;52.254;5.598;2022-07-25T00:16:36;31.69;30.18;34.10;;
66456;Laerm;56833;52.254;5.598;2022-07-25T00:16:46;32.47;30.13;38.93;;
66456;Laerm;56833;52.254;5.598;2022-07-25T00:16:56;31.40;29.57;41.98;;
66456;Laerm;56833;52.254;5.598;2022-07-25T00:17:07;30.46;28.98;39.22;;
66456;Laerm;56833;52.254;5.598;2022-07-25T00:17:17;30.29;28.78;32.08;;
66456;Laerm;56833;52.254;5.598;2022-07-25T00:17:27;29.99;28.82;33.09;;
66456;Laerm;56833;52.254;5.598;2022-07-25T00:17:38;30.27;28.93;33.42;;
66456;Laerm;56833;52.254;5.598;2022-07-25T00:17:48;30.25;28.76;37.36;;
66456;Laerm;56833;52.254;5.598;2022-07-25T00:17:58;30.49;29.02;35.11;;
66456;Laerm;56833;52.254;5.598;2022-07-25T00:18:09;30.68;29.19;33.52;;
66456;Laerm;56833;52.254;5.598;2022-07-25T00:18:19;30.99;29.46;34.10;;
66456;Laerm;56833;52.254;5.598;2022-07-25T00:18:29;31.82;29.96;36.24;;
66456;Laerm;56833;52.254;5.598;2022-07-25T00:18:39;31.77;29.60;34.98;;
66456;Laerm;56833;52.254;5.598;2022-07-25T00:18:50;30.72;29.49;33.02;;
66456;Laerm;56833;52.254;5.598;2022-07-25T00:19:00;30.80;29.31;37.45;;
66456;Laerm;56833;52.254;5.598;2022-07-25T00:19:10;31.01;29.69;37.40;;
66456;Laerm;56833;52.254;5.598;2022-07-25T00:19:20;30.86;29.61;35.08;;
66456;Laerm;56833;52.254;5.598;2022-07-25T00:19:30;31.18;29.85;34.19;;
66456;Laerm;56833;52.254;5.598;2022-07-25T00:19:41;30.48;29.03;33.40;;
66456;Laerm;56833;52.254;5.598;2022-07-25T00:19:51;30.38;28.64;32.73;;
66456;Laerm;56833;52.254;5.598;2022-07-25T00:20:01;30.48;29.37;34.92;;
66456;Laerm;56833;52.254;5.598;2022-07-25T00:20:12;30.05;28.53;33.44;;
66456;Laerm;56833;52.254;5.598;2022-07-25T00:20:22;30.21;29.13;32.41;;
66456;Laerm;56833;52.254;5.598;2022-07-25T00:20:33;30.27;28.70;35.63;;
66456;Laerm;56833;52.254;5.598;2022-07-25T00:20:43;30.31;29.01;33.40;;
66456;Laerm;56833;52.254;5.598;2022-07-25T00:20:53;30.60;29.01;40.59;;
66456;Laerm;56833;52.254;5.598;2022-07-25T00:21:03;31.66;29.80;35.57;;
66456;Laerm;56833;52.254;5.598;2022-07-25T00:21:14;31.59;29.88;33.73;;
66456;Laerm;56833;52.254;5.598;2022-07-25T00:21:24;31.01;29.24;34.62;;
66456;Laerm;56833;52.254;5.598;2022-07-25T00:21:34;31.24;29.19;44.60;;
66456;Laerm;56833;52.254;5.598;2022-07-25T00:21:45;30.70;28.88;34.91;;
66456;Laerm;56833;52.254;5.598;2022-07-25T00:21:55;30.49;28.98;34.74;;
66456;Laerm;56833;52.254;5.598;2022-07-25T00:22:05;30.38;29.16;35.00;;
66456;Laerm;56833;52.254;5.598;2022-07-25T00:22:15;30.51;29.04;32.73;;
66456;Laerm;56833;52.254;5.598;2022-07-25T00:22:26;30.50;28.90;32.98;;
66456;Laerm;56833;52.254;5.598;2022-07-25T00:22:36;30.82;28.97;33.89;;
66456;Laerm;56833;52.254;5.598;2022-07-25T00:22:46;30.45;28.84;39.62;;
66456;Laerm;56833;52.254;5.598;2022-07-25T00:22:56;30.30;29.10;33.55;;
66456;Laerm;56833;52.254;5.598;2022-07-25T00:23:06;30.41;29.35;33.69;;
66456;Laerm;56833;52.254;5.598;2022-07-25T00:23:17;31.63;29.85;33.95;;
66456;Laerm;56833;52.254;5.598;2022-07-25T00:23:27;31.32;29.80;34.52;;
66456;Laerm;56833;52.254;5.598;2022-07-25T00:23:37;30.36;28.61;32.80;;
66456;Laerm;56833;52.254;5.598;2022-07-25T00:23:47;30.20;28.65;33.83;;
66456;Laerm;56833;52.254;5.598;2022-07-25T00:23:58;30.63;29.18;32.90;;
66456;Laerm;56833;52.254;5.598;2022-07-25T00:24:08;30.94;29.14;33.10;;
66456;Laerm;56833;52.254;5.598;2022-07-25T00:24:18;30.21;28.76;37.51;;
66456;Laerm;56833;52.254;5.598;2022-07-25T00:24:28;30.06;28.55;31.17;;
66456;Laerm;56833;52.254;5.598;2022-07-25T00:24:38;30.43;29.14;34.97;;
66456;Laerm;56833;52.254;5.598;2022-07-25T00:24:49;29.96;28.59;31.33;;
66456;Laerm;56833;52.254;5.598;2022-07-25T00:24:59;30.18;28.83;32.60;;
66456;Laerm;56833;52.254;5.598;2022-07-25T00:25:09;30.56;29.21;34.41;;
66456;Laerm;56833;52.254;5.598;2022-07-25T00:25:20;30.22;28.17;34.28;;
66456;Laerm;56833;52.254;5.598;2022-07-25T00:25:30;30.20;28.79;35.60;;
66456;Laerm;56833;52.254;5.598;2022-07-25T00:25:42;30.25;29.00;32.86;;
66456;Laerm;56833;52.254;5.598;2022-07-25T00:25:52;30.51;29.03;35.86;;
66456;Laerm;56833;52.254;5.598;2022-07-25T00:26:02;29.71;28.83;31.76;;
66456;Laerm;56833;52.254;5.598;2022-07-25T00:26:12;29.63;28.33;32.94;;
66456;Laerm;56833;52.254;5.598;2022-07-25T00:26:23;29.81;28.68;31.74;;
66456;Laerm;56833;52.254;5.598;2022-07-25T00:26:33;29.93;28.71;31.43;;
66456;Laerm;56833;52.254;5.598;2022-07-25T00:26:44;31.16;29.25;36.28;;
66456;Laerm;56833;52.254;5.598;2022-07-25T00:26:54;31.13;29.63;32.78;;
66456;Laerm;56833;52.254;5.598;2022-07-25T00:27:04;31.74;29.92;35.06;;
66456;Laerm;56833;52.254;5.598;2022-07-25T00:27:14;32.04;30.31;34.22;;
66456;Laerm;56833;52.254;5.598;2022-07-25T00:27:24;32.16;30.14;38.45;;
66456;Laerm;56833;52.254;5.598;2022-07-25T00:27:35;31.60;29.63;34.52;;
66456;Laerm;56833;52.254;5.598;2022-07-25T00:27:45;31.12;29.44;33.75;;
66456;Laerm;56833;52.254;5.598;2022-07-25T00:27:55;31.32;28.97;41.74;;
66456;Laerm;56833;52.254;5.598;2022-07-25T00:28:05;30.32;28.86;32.22;;
66456;Laerm;56833;52.254;5.598;2022-07-25T00:28:15;30.17;28.82;35.55;;
66456;Laerm;56833;52.254;5.598;2022-07-25T00:28:26;29.97;28.31;36.21;;
66456;Laerm;56833;52.254;5.598;2022-07-25T00:28:36;30.14;28.99;35.55;;
66456;Laerm;56833;52.254;5.598;2022-07-25T00:28:46;29.93;28.39;32.27;;
66456;Laerm;56833;52.254;5.598;2022-07-25T00:28:56;30.27;28.82;32.92;;
66456;Laerm;56833;52.254;5.598;2022-07-25T00:29:06;30.53;29.26;33.24;;
66456;Laerm;56833;52.254;5.598;2022-07-25T00:29:17;31.13;29.78;32.62;;
66456;Laerm;56833;52.254;5.598;2022-07-25T00:29:27;30.73;29.19;31.98;;
66456;Laerm;56833;52.254;5.598;2022-07-25T00:29:37;30.58;29.52;31.93;;
66456;Laerm;56833;52.254;5.598;2022-07-25T00:29:48;30.39;29.40;31.69;;
66456;Laerm;56833;52.254;5.598;2022-07-25T00:29:58;30.65;29.35;34.58;;
66456;Laerm;56833;52.254;5.598;2022-07-25T00:30:08;31.01;29.32;43.52;;
66456;Laerm;56833;52.254;5.598;2022-07-25T00:30:19;30.62;29.45;33.65;;
66456;Laerm;56833;52.254;5.598;2022-07-25T00:30:29;30.68;29.52;34.46;;
66456;Laerm;56833;52.254;5.598;2022-07-25T00:30:39;30.23;29.04;32.94;;
66456;Laerm;56833;52.254;5.598;2022-07-25T00:30:50;30.36;28.56;38.98;;
66456;Laerm;56833;52.254;5.598;2022-07-25T00:31:00;30.21;28.91;34.21;;
66456;Laerm;56833;52.254;5.598;2022-07-25T00:31:10;30.31;29.20;32.14;;
66456;Laerm;56833;52.254;5.598;2022-07-25T00:31:20;30.68;29.00;35.26;;
66456;Laerm;56833;52.254;5.598;2022-07-25T00:31:31;30.97;29.14;35.36;;
66456;Laerm;56833;52.254;5.598;2022-07-25T00:31:41;30.07;28.81;32.33;;
66456;Laerm;56833;52.254;5.598;2022-07-25T00:31:51;30.03;28.88;31.10;;
66456;Laerm;56833;52.254;5.598;2022-07-25T00:32:01;29.68;28.65;30.87;;
66456;Laerm;56833;52.254;5.598;2022-07-25T00:32:12;30.95;29.08;33.54;;
66456;Laerm;56833;52.254;5.598;2022-07-25T00:32:22;30.18;29.13;32.08;;
66456;Laerm;56833;52.254;5.598;2022-07-25T00:32:32;30.12;28.90;31.89;;
66456;Laerm;56833;52.254;5.598;2022-07-25T00:32:42;30.52;29.07;33.46;;
66456;Laerm;56833;52.254;5.598;2022-07-25T00:32:53;30.79;29.36;34.63;;
66456;Laerm;56833;52.254;5.598;2022-07-25T00:33:03;30.57;29.17;38.90;;
66456;Laerm;56833;52.254;5.598;2022-07-25T00:33:13;30.18;28.87;33.12;;
66456;Laerm;56833;52.254;5.598;2022-07-25T00:33:23;30.07;29.01;31.58;;
66456;Laerm;56833;52.254;5.598;2022-07-25T00:33:33;30.32;28.99;32.30;;
66456;Laerm;56833;52.254;5.598;2022-07-25T00:33:44;30.69;29.51;31.72;;
66456;Laerm;56833;52.254;5.598;2022-07-25T00:33:54;31.19;29.71;34.43;;
66456;Laerm;56833;52.254;5.598;2022-07-25T00:34:04;31.40;29.95;34.42;;
66456;Laerm;56833;52.254;5.598;2022-07-25T00:34:14;31.45;30.07;34.63;;
66456;Laerm;56833;52.254;5.598;2022-07-25T00:34:25;31.01;29.29;33.82;;
66456;Laerm;56833;52.254;5.598;2022-07-25T00:34:35;30.91;29.13;33.39;;
66456;Laerm;56833;52.254;5.598;2022-07-25T00:34:45;30.57;29.15;32.44;;
66456;Laerm;56833;52.254;5.598;2022-07-25T00:34:55;30.26;29.15;32.99;;
66456;Laerm;56833;52.254;5.598;2022-07-25T00:35:06;30.07;29.06;31.44;;
66456;Laerm;56833;52.254;5.598;2022-07-25T00:35:16;30.18;28.94;31.54;;
66456;Laerm;56833;52.254;5.598;2022-07-25T00:35:26;30.20;28.97;33.08;;
66456;Laerm;56833;52.254;5.598;2022-07-25T00:35:36;30.10;28.92;31.71;;
66456;Laerm;56833;52.254;5.598;2022-07-25T00:35:46;30.10;28.87;31.53;;
66456;Laerm;56833;52.254;5.598;2022-07-25T00:35:57;30.65;28.90;34.76;;
66456;Laerm;56833;52.254;5.598;2022-07-25T00:36:07;30.60;29.15;34.55;;
66456;Laerm;56833;52.254;5.598;2022-07-25T00:36:18;30.84;29.28;33.76;;
66456;Laerm;56833;52.254;5.598;2022-07-25T00:36:28;31.59;29.52;34.77;;
66456;Laerm;56833;52.254;5.598;2022-07-25T00:36:38;30.84;29.54;32.30;;
66456;Laerm;56833;52.254;5.598;2022-07-25T00:36:48;30.45;29.26;32.14;;
66456;Laerm;56833;52.254;5.598;2022-07-25T00:36:59;30.47;28.73;33.43;;
66456;Laerm;56833;52.254;5.598;2022-07-25T00:37:09;30.74;28.98;33.81;;
66456;Laerm;56833;52.254;5.598;2022-07-25T00:37:19;30.88;28.89;34.52;;
66456;Laerm;56833;52.254;5.598;2022-07-25T00:37:29;31.18;29.58;33.73;;
66456;Laerm;56833;52.254;5.598;2022-07-25T00:37:40;32.00;29.87;36.24;;
66456;Laerm;56833;52.254;5.598;2022-07-25T00:37:50;32.24;29.56;36.12;;
66456;Laerm;56833;52.254;5.598;2022-07-25T00:38:00;32.39;29.99;35.49;;
66456;Laerm;56833;52.254;5.598;2022-07-25T00:38:11;32.56;30.21;36.63;;
66456;Laerm;56833;52.254;5.598;2022-07-25T00:38:21;31.77;29.07;34.94;;
66456;Laerm;56833;52.254;5.598;2022-07-25T00:38:31;32.49;29.81;41.06;;
66456;Laerm;56833;52.254;5.598;2022-07-25T00:38:41;31.84;29.32;37.75;;
66456;Laerm;56833;52.254;5.598;2022-07-25T00:38:51;32.41;29.45;39.14;;
66456;Laerm;56833;52.254;5.598;2022-07-25T00:39:02;34.48;31.89;37.88;;
66456;Laerm;56833;52.254;5.598;2022-07-25T00:39:12;32.11;29.90;36.30;;
66456;Laerm;56833;52.254;5.598;2022-07-25T00:39:22;31.25;29.57;33.56;;
66456;Laerm;56833;52.254;5.598;2022-07-25T00:39:33;31.24;29.43;33.61;;
66456;Laerm;56833;52.254;5.598;2022-07-25T00:39:43;30.79;29.58;35.26;;
66456;Laerm;56833;52.254;5.598;2022-07-25T00:39:53;30.66;29.30;35.21;;
66456;Laerm;56833;52.254;5.598;2022-07-25T00:40:03;30.61;29.17;32.63;;
66456;Laerm;56833;52.254;5.598;2022-07-25T00:40:14;31.19;29.84;37.14;;
66456;Laerm;56833;52.254;5.598;2022-07-25T00:40:24;31.17;29.89;35.29;;
66456;Laerm;56833;52.254;5.598;2022-07-25T00:40:34;30.80;29.51;32.37;;
66456;Laerm;56833;52.254;5.598;2022-07-25T00:40:45;30.92;29.54;32.73;;
66456;Laerm;56833;52.254;5.598;2022-07-25T00:40:55;30.99;29.62;35.57;;
66456;Laerm;56833;52.254;5.598;2022-07-25T00:41:05;30.73;28.86;32.21;;
66456;Laerm;56833;52.254;5.598;2022-07-25T00:41:15;30.81;29.25;34.30;;
66456;Laerm;56833;52.254;5.598;2022-07-25T00:41:25;30.94;29.28;34.75;;
66456;Laerm;56833;52.254;5.598;2022-07-25T00:41:36;30.31;28.73;34.48;;
66456;Laerm;56833;52.254;5.598;2022-07-25T00:41:46;30.46;29.10;31.76;;
66456;Laerm;56833;52.254;5.598;2022-07-25T00:41:56;32.54;30.00;37.39;;
66456;Laerm;56833;52.254;5.598;2022-07-25T00:42:06;31.05;29.16;33.64;;
66456;Laerm;56833;52.254;5.598;2022-07-25T00:42:17;30.41;28.96;32.36;;
66456;Laerm;56833;52.254;5.598;2022-07-25T00:42:27;30.36;29.11;36.18;;
66456;Laerm;56833;52.254;5.598;2022-07-25T00:42:37;30.53;29.13;31.89;;
66456;Laerm;56833;52.254;5.598;2022-07-25T00:42:48;30.76;29.44;32.93;;
66456;Laerm;56833;52.254;5.598;2022-07-25T00:42:58;31.16;29.18;34.71;;
66456;Laerm;56833;52.254;5.598;2022-07-25T00:43:08;30.99;29.65;34.37;;
66456;Laerm;56833;52.254;5.598;2022-07-25T00:43:18;32.27;29.99;34.86;;
66456;Laerm;56833;52.254;5.598;2022-07-25T00:43:29;35.47;31.86;38.67;;
66456;Laerm;56833;52.254;5.598;2022-07-25T00:43:42;31.81;29.96;33.98;;
66456;Laerm;56833;52.254;5.598;2022-07-25T00:43:53;30.82;29.17;41.74;;
66456;Laerm;56833;52.254;5.598;2022-07-25T00:44:03;30.86;29.58;34.74;;
66456;Laerm;56833;52.254;5.598;2022-07-25T00:44:33;30.32;28.93;32.97;;
66456;Laerm;56833;52.254;5.598;2022-07-25T00:44:44;31.17;29.79;37.74;;
66456;Laerm;56833;52.254;5.598;2022-07-25T00:44:54;31.55;30.25;33.48;;
66456;Laerm;56833;52.254;5.598;2022-07-25T00:45:04;32.48;30.29;36.30;;
66456;Laerm;56833;52.254;5.598;2022-07-25T00:45:15;31.80;30.14;33.40;;
66456;Laerm;56833;52.254;5.598;2022-07-25T00:45:25;31.38;30.21;33.54;;
66456;Laerm;56833;52.254;5.598;2022-07-25T00:45:35;30.86;29.21;36.10;;
66456;Laerm;56833;52.254;5.598;2022-07-25T00:45:45;30.84;29.04;37.46;;
66456;Laerm;56833;52.254;5.598;2022-07-25T00:45:55;30.87;28.66;37.01;;
66456;Laerm;56833;52.254;5.598;2022-07-25T00:46:07;30.94;29.14;35.34;;
66456;Laerm;56833;52.254;5.598;2022-07-25T00:46:17;31.77;30.16;34.34;;
66456;Laerm;56833;52.254;5.598;2022-07-25T00:46:28;30.93;29.66;34.31;;
66456;Laerm;56833;52.254;5.598;2022-07-25T00:46:38;30.46;28.89;31.86;;
66456;Laerm;56833;52.254;5.598;2022-07-25T00:46:48;30.33;28.99;31.48;;
66456;Laerm;56833;52.254;5.598;2022-07-25T00:46:58;30.50;28.93;31.99;;
66456;Laerm;56833;52.254;5.598;2022-07-25T00:47:09;30.57;28.88;33.49;;
66456;Laerm;56833;52.254;5.598;2022-07-25T00:47:19;30.70;29.52;37.21;;
66456;Laerm;56833;52.254;5.598;2022-07-25T00:47:29;31.00;29.05;34.44;;
66456;Laerm;56833;52.254;5.598;2022-07-25T00:47:40;30.92;29.43;32.70;;
66456;Laerm;56833;52.254;5.598;2022-07-25T00:47:50;31.24;29.81;33.36;;
66456;Laerm;56833;52.254;5.598;2022-07-25T00:48:00;31.57;29.81;40.25;;
66456;Laerm;56833;52.254;5.598;2022-07-25T00:48:10;30.89;28.95;34.71;;
66456;Laerm;56833;52.254;5.598;2022-07-25T00:48:21;30.24;28.71;32.78;;
66456;Laerm;56833;52.254;5.598;2022-07-25T00:48:31;30.12;28.83;33.20;;
66456;Laerm;56833;52.254;5.598;2022-07-25T00:48:41;30.24;29.00;35.69;;
66456;Laerm;56833;52.254;5.598;2022-07-25T00:48:52;30.27;28.64;34.99;;
66456;Laerm;56833;52.254;5.598;2022-07-25T00:49:02;30.12;28.82;32.56;;
66456;Laerm;56833;52.254;5.598;2022-07-25T00:49:12;30.38;29.19;35.57;;
66456;Laerm;56833;52.254;5.598;2022-07-25T00:49:23;30.83;29.29;39.32;;
66456;Laerm;56833;52.254;5.598;2022-07-25T00:49:33;30.65;29.41;32.26;;
66456;Laerm;56833;52.254;5.598;2022-07-25T00:49:43;30.46;29.02;33.54;;
66456;Laerm;56833;52.254;5.598;2022-07-25T00:49:53;30.44;28.98;32.05;;
66456;Laerm;56833;52.254;5.598;2022-07-25T00:50:04;30.52;29.12;32.22;;
66456;Laerm;56833;52.254;5.598;2022-07-25T00:50:14;31.64;30.15;35.60;;
66456;Laerm;56833;52.254;5.598;2022-07-25T00:50:24;30.59;29.24;32.95;;
66456;Laerm;56833;52.254;5.598;2022-07-25T00:50:35;30.57;29.24;33.44;;
66456;Laerm;56833;52.254;5.598;2022-07-25T00:50:45;30.50;29.09;32.58;;
66456;Laerm;56833;52.254;5.598;2022-07-25T00:50:56;30.86;29.54;32.77;;
66456;Laerm;56833;52.254;5.598;2022-07-25T00:51:07;31.12;29.75;32.33;;
66456;Laerm;56833;52.254;5.598;2022-07-25T00:51:17;30.61;28.92;37.32;;
66456;Laerm;56833;52.254;5.598;2022-07-25T00:51:28;30.16;28.51;31.30;;
66456;Laerm;56833;52.254;5.598;2022-07-25T00:51:39;30.60;29.04;32.30;;
66456;Laerm;56833;52.254;5.598;2022-07-25T00:51:49;30.74;29.04;32.48;;
66456;Laerm;56833;52.254;5.598;2022-07-25T00:52:00;30.70;29.22;33.98;;
66456;Laerm;56833;52.254;5.598;2022-07-25T00:52:10;30.19;28.78;31.71;;
66456;Laerm;56833;52.254;5.598;2022-07-25T00:52:20;30.13;28.87;33.91;;
66456;Laerm;56833;52.254;5.598;2022-07-25T00:52:32;30.15;28.75;31.44;;
66456;Laerm;56833;52.254;5.598;2022-07-25T00:52:43;30.71;29.11;32.18;;
66456;Laerm;56833;52.254;5.598;2022-07-25T00:52:54;30.85;29.35;32.14;;
66456;Laerm;56833;52.254;5.598;2022-07-25T00:53:04;30.67;29.23;34.60;;
66456;Laerm;56833;52.254;5.598;2022-07-25T00:53:15;30.49;29.45;31.70;;
66456;Laerm;56833;52.254;5.598;2022-07-25T00:53:25;30.33;29.17;33.52;;
66456;Laerm;56833;52.254;5.598;2022-07-25T00:53:36;30.22;29.17;33.76;;
66456;Laerm;56833;52.254;5.598;2022-07-25T00:53:47;30.41;29.04;39.40;;
66456;Laerm;56833;52.254;5.598;2022-07-25T00:53:57;30.52;29.27;31.92;;
66456;Laerm;56833;52.254;5.598;2022-07-25T00:54:07;30.21;29.09;36.47;;
66456;Laerm;56833;52.254;5.598;2022-07-25T00:54:17;30.02;28.83;31.58;;
66456;Laerm;56833;52.254;5.598;2022-07-25T00:54:28;30.55;29.32;33.98;;
66456;Laerm;56833;52.254;5.598;2022-07-25T00:54:38;30.95;29.72;32.20;;
66456;Laerm;56833;52.254;5.598;2022-07-25T00:54:49;30.43;28.68;33.18;;
66456;Laerm;56833;52.254;5.598;2022-07-25T00:54:59;30.60;29.35;32.19;;
66456;Laerm;56833;52.254;5.598;2022-07-25T00:55:10;30.55;29.36;32.52;;
66456;Laerm;56833;52.254;5.598;2022-07-25T00:55:21;30.83;29.22;35.81;;
66456;Laerm;56833;52.254;5.598;2022-07-25T00:55:32;30.58;29.40;33.74;;
66456;Laerm;56833;52.254;5.598;2022-07-25T00:55:42;30.58;29.39;36.88;;
66456;Laerm;56833;52.254;5.598;2022-07-25T00:55:53;30.38;28.93;32.36;;
66456;Laerm;56833;52.254;5.598;2022-07-25T00:56:03;30.29;29.13;32.95;;
66456;Laerm;56833;52.254;5.598;2022-07-25T00:56:14;30.22;28.69;34.27;;
66456;Laerm;56833;52.254;5.598;2022-07-25T00:56:24;30.39;29.16;34.04;;
66456;Laerm;56833;52.254;5.598;2022-07-25T00:56:35;30.26;29.16;31.92;;
66456;Laerm;56833;52.254;5.598;2022-07-25T00:56:46;30.27;28.85;35.41;;
66456;Laerm;56833;52.254;5.598;2022-07-25T00:56:56;30.62;29.41;36.09;;
66456;Laerm;56833;52.254;5.598;2022-07-25T00:57:06;30.77;29.35;37.81;;
66456;Laerm;56833;52.254;5.598;2022-07-25T00:57:17;30.72;29.32;34.48;;
66456;Laerm;56833;52.254;5.598;2022-07-25T00:57:27;30.48;29.11;31.52;;
66456;Laerm;56833;52.254;5.598;2022-07-25T00:57:37;31.21;29.81;39.20;;
66456;Laerm;56833;52.254;5.598;2022-07-25T00:57:47;31.66;29.65;36.10;;
66456;Laerm;56833;52.254;5.598;2022-07-25T00:57:58;30.92;29.06;34.41;;
66456;Laerm;56833;52.254;5.598;2022-07-25T00:58:08;30.82;29.42;40.03;;